sensor_id;sensor_type;location;lat;lon;timestamp;temperature;humidity
69324;DHT22;56470;47.350;8.718;2024-01-06T00:01:16;6.14;84.91
69324;DHT22;56470;47.350;8.718;2024-01-06T00:03:41;6.22;84.18
69324;DHT22;56470;47.350;8.718;2024-01-06T00:06:07;6.26;84.40
69324;DHT22;56470;47.350;8.718;2024-01-06T00:08:32;6.24;84.04
69324;DHT22;56470;47.350;8.718;2024-01-06T00:10:57;6.25;83.86
69324;DHT22;56470;47.350;8.718;2024-01-06T00:13:23;6.18;83.67
69324;DHT22;56470;47.350;8.718;2024-01-06T00:15:48;6.21;83.46
69324;DHT22;56470;47.350;8.718;2024-01-06T00:18:13;6.21;83.16
69324;DHT22;56470;47.350;8.718;2024-01-06T00:20:39;6.14;83.30
69324;DHT22;56470;47.350;8.718;2024-01-06T00:23:04;6.20;83.19
69324;DHT22;56470;47.350;8.718;2024-01-06T00:25:29;6.15;83.15
69324;DHT22;56470;47.350;8.718;2024-01-06T00:27:55;6.15;83.08
69324;DHT22;56470;47.350;8.718;2024-01-06T00:30:20;6.17;82.75
69324;DHT22;56470;47.350;8.718;2024-01-06T00:32:45;6.11;82.76
69324;DHT22;56470;47.350;8.718;2024-01-06T00:35:11;6.15;82.85
69324;DHT22;56470;47.350;8.718;2024-01-06T00:37:36;6.13;82.58
69324;DHT22;56470;47.350;8.718;2024-01-06T00:40:01;6.08;82.78
69324;DHT22;56470;47.350;8.718;2024-01-06T00:42:26;6.10;82.56
69324;DHT22;56470;47.350;8.718;2024-01-06T00:44:52;6.17;82.48
69324;DHT22;56470;47.350;8.718;2024-01-06T00:47:17;6.18;82.03
69324;DHT22;56470;47.350;8.718;2024-01-06T00:49:43;6.22;82.09
69324;DHT22;56470;47.350;8.718;2024-01-06T00:52:08;6.25;81.83
69324;DHT22;56470;47.350;8.718;2024-01-06T00:54:33;6.29;81.75
69324;DHT22;56470;47.350;8.718;2024-01-06T00:56:59;6.26;81.43
69324;DHT22;56470;47.350;8.718;2024-01-06T00:59:24;6.22;81.22
69324;DHT22;56470;47.350;8.718;2024-01-06T01:01:50;6.25;81.31
69324;DHT22;56470;47.350;8.718;2024-01-06T01:04:15;6.28;81.20
69324;DHT22;56470;47.350;8.718;2024-01-06T01:06:40;6.26;81.11
69324;DHT22;56470;47.350;8.718;2024-01-06T01:09:06;6.25;81.10
69324;DHT22;56470;47.350;8.718;2024-01-06T01:11:31;6.32;81.05
69324;DHT22;56470;47.350;8.718;2024-01-06T01:13:56;6.38;81.04
69324;DHT22;56470;47.350;8.718;2024-01-06T01:16:22;6.41;80.77
69324;DHT22;56470;47.350;8.718;2024-01-06T01:18:47;6.35;80.57
69324;DHT22;56470;47.350;8.718;2024-01-06T01:21:12;6.35;80.56
69324;DHT22;56470;47.350;8.718;2024-01-06T01:23:38;6.31;80.65
69324;DHT22;56470;47.350;8.718;2024-01-06T01:26:03;6.32;80.95
69324;DHT22;56470;47.350;8.718;2024-01-06T01:28:28;6.35;80.99
69324;DHT22;56470;47.350;8.718;2024-01-06T01:30:54;6.35;80.72
69324;DHT22;56470;47.350;8.718;2024-01-06T01:33:19;6.35;80.64
69324;DHT22;56470;47.350;8.718;2024-01-06T01:35:45;6.35;80.69
69324;DHT22;56470;47.350;8.718;2024-01-06T01:38:10;6.36;80.43
69324;DHT22;56470;47.350;8.718;2024-01-06T01:40:35;6.39;80.48
69324;DHT22;56470;47.350;8.718;2024-01-06T01:43:01;6.42;80.58
69324;DHT22;56470;47.350;8.718;2024-01-06T01:45:26;6.48;80.52
69324;DHT22;56470;47.350;8.718;2024-01-06T01:47:51;6.46;80.18
69324;DHT22;56470;47.350;8.718;2024-01-06T01:50:17;6.46;80.34
69324;DHT22;56470;47.350;8.718;2024-01-06T01:52:42;6.49;80.41
69324;DHT22;56470;47.350;8.718;2024-01-06T01:55:08;6.48;80.03
69324;DHT22;56470;47.350;8.718;2024-01-06T01:57:33;6.41;80.17
69324;DHT22;56470;47.350;8.718;2024-01-06T02:00:00;6.33;80.05
69324;DHT22;56470;47.350;8.718;2024-01-06T02:02:26;6.29;80.31
69324;DHT22;56470;47.350;8.718;2024-01-06T02:04:51;6.26;80.39
69324;DHT22;56470;47.350;8.718;2024-01-06T02:07:17;6.29;80.48
69324;DHT22;56470;47.350;8.718;2024-01-06T02:09:42;6.29;80.49
69324;DHT22;56470;47.350;8.718;2024-01-06T02:12:08;6.35;80.56
69324;DHT22;56470;47.350;8.718;2024-01-06T02:14:33;6.38;80.53
69324;DHT22;56470;47.350;8.718;2024-01-06T02:16:58;6.35;80.15
69324;DHT22;56470;47.350;8.718;2024-01-06T02:19:24;6.32;79.99
69324;DHT22;56470;47.350;8.718;2024-01-06T02:21:52;6.29;79.96
69324;DHT22;56470;47.350;8.718;2024-01-06T02:24:17;6.22;79.88
69324;DHT22;56470;47.350;8.718;2024-01-06T02:26:43;6.17;79.85
69324;DHT22;56470;47.350;8.718;2024-01-06T02:29:09;6.08;79.94
69324;DHT22;56470;47.350;8.718;2024-01-06T02:31:34;5.98;80.10
69324;DHT22;56470;47.350;8.718;2024-01-06T02:33:59;5.96;80.18
69324;DHT22;56470;47.350;8.718;2024-01-06T02:36:25;5.96;80.33
69324;DHT22;56470;47.350;8.718;2024-01-06T02:38:50;5.90;80.21
69324;DHT22;56470;47.350;8.718;2024-01-06T02:41:15;5.86;80.17
69324;DHT22;56470;47.350;8.718;2024-01-06T02:43:41;5.86;80.12
69324;DHT22;56470;47.350;8.718;2024-01-06T02:46:07;5.89;80.17
69324;DHT22;56470;47.350;8.718;2024-01-06T02:48:32;5.91;80.05
69324;DHT22;56470;47.350;8.718;2024-01-06T02:50:57;5.96;80.02
69324;DHT22;56470;47.350;8.718;2024-01-06T02:53:23;5.94;79.92
69324;DHT22;56470;47.350;8.718;2024-01-06T02:55:48;5.96;80.03
69324;DHT22;56470;47.350;8.718;2024-01-06T02:58:13;5.90;79.88
69324;DHT22;56470;47.350;8.718;2024-01-06T03:00:38;5.90;79.92
69324;DHT22;56470;47.350;8.718;2024-01-06T03:03:04;5.90;80.01
69324;DHT22;56470;47.350;8.718;2024-01-06T03:05:29;5.96;80.05
69324;DHT22;56470;47.350;8.718;2024-01-06T03:07:54;6.04;80.24
69324;DHT22;56470;47.350;8.718;2024-01-06T03:10:20;6.14;80.27
69324;DHT22;56470;47.350;8.718;2024-01-06T03:12:45;6.17;80.10
69324;DHT22;56470;47.350;8.718;2024-01-06T03:15:10;6.26;80.00
69324;DHT22;56470;47.350;8.718;2024-01-06T03:17:36;6.31;79.93
69324;DHT22;56470;47.350;8.718;2024-01-06T03:20:01;6.36;79.86
69324;DHT22;56470;47.350;8.718;2024-01-06T03:22:27;6.41;79.78
69324;DHT22;56470;47.350;8.718;2024-01-06T03:24:52;6.41;79.69
69324;DHT22;56470;47.350;8.718;2024-01-06T03:27:17;6.35;79.37
69324;DHT22;56470;47.350;8.718;2024-01-06T03:29:43;6.31;79.34
69324;DHT22;56470;47.350;8.718;2024-01-06T03:32:08;6.22;79.28
69324;DHT22;56470;47.350;8.718;2024-01-06T03:34:33;6.22;79.04
69324;DHT22;56470;47.350;8.718;2024-01-06T03:36:58;6.22;79.37
69324;DHT22;56470;47.350;8.718;2024-01-06T03:39:24;6.25;79.66
69324;DHT22;56470;47.350;8.718;2024-01-06T03:41:49;6.32;79.60
69324;DHT22;56470;47.350;8.718;2024-01-06T03:44:14;6.39;79.69
69324;DHT22;56470;47.350;8.718;2024-01-06T03:46:40;6.49;79.57
69324;DHT22;56470;47.350;8.718;2024-01-06T03:49:05;6.52;79.62
69324;DHT22;56470;47.350;8.718;2024-01-06T03:51:30;6.59;79.53
69324;DHT22;56470;47.350;8.718;2024-01-06T03:53:56;6.60;79.47
69324;DHT22;56470;47.350;8.718;2024-01-06T03:56:21;6.66;79.54
69324;DHT22;56470;47.350;8.718;2024-01-06T03:58:46;6.65;79.27
69324;DHT22;56470;47.350;8.718;2024-01-06T04:01:12;6.66;79.24
69324;DHT22;56470;47.350;8.718;2024-01-06T04:03:38;6.66;79.28
69324;DHT22;56470;47.350;8.718;2024-01-06T04:06:05;6.72;79.32
69324;DHT22;56470;47.350;8.718;2024-01-06T04:08:30;6.73;79.07
69324;DHT22;56470;47.350;8.718;2024-01-06T04:10:56;6.75;78.97
69324;DHT22;56470;47.350;8.718;2024-01-06T04:13:21;6.76;79.22
69324;DHT22;56470;47.350;8.718;2024-01-06T04:15:46;6.75;79.21
69324;DHT22;56470;47.350;8.718;2024-01-06T04:18:12;6.76;78.93
69324;DHT22;56470;47.350;8.718;2024-01-06T04:20:37;6.77;79.04
69324;DHT22;56470;47.350;8.718;2024-01-06T04:23:02;6.77;78.76
69324;DHT22;56470;47.350;8.718;2024-01-06T04:25:28;6.75;78.93
69324;DHT22;56470;47.350;8.718;2024-01-06T04:27:53;6.75;78.82
69324;DHT22;56470;47.350;8.718;2024-01-06T04:30:18;6.72;79.06
69324;DHT22;56470;47.350;8.718;2024-01-06T04:32:45;6.72;78.78
69324;DHT22;56470;47.350;8.718;2024-01-06T04:35:13;6.69;78.57
69324;DHT22;56470;47.350;8.718;2024-01-06T04:37:38;6.69;78.37
69324;DHT22;56470;47.350;8.718;2024-01-06T04:40:04;6.69;78.33
69324;DHT22;56470;47.350;8.718;2024-01-06T04:42:29;6.70;78.21
69324;DHT22;56470;47.350;8.718;2024-01-06T04:44:55;6.66;78.21
69324;DHT22;56470;47.350;8.718;2024-01-06T04:47:20;6.67;78.22
69324;DHT22;56470;47.350;8.718;2024-01-06T04:49:45;6.65;78.04
69324;DHT22;56470;47.350;8.718;2024-01-06T04:52:11;6.65;78.23
69324;DHT22;56470;47.350;8.718;2024-01-06T04:54:36;6.67;78.08
69324;DHT22;56470;47.350;8.718;2024-01-06T04:57:02;6.69;77.99
69324;DHT22;56470;47.350;8.718;2024-01-06T04:59:28;6.67;77.69
69324;DHT22;56470;47.350;8.718;2024-01-06T05:01:53;6.67;77.80
69324;DHT22;56470;47.350;8.718;2024-01-06T05:04:19;6.67;77.54
69324;DHT22;56470;47.350;8.718;2024-01-06T05:06:44;6.66;77.73
69324;DHT22;56470;47.350;8.718;2024-01-06T05:09:09;6.67;78.08
69324;DHT22;56470;47.350;8.718;2024-01-06T05:11:35;6.66;77.90
69324;DHT22;56470;47.350;8.718;2024-01-06T05:14:00;6.62;78.02
69324;DHT22;56470;47.350;8.718;2024-01-06T05:16:25;6.59;77.77
69324;DHT22;56470;47.350;8.718;2024-01-06T05:18:51;6.62;77.81
69324;DHT22;56470;47.350;8.718;2024-01-06T05:21:16;6.65;78.10
69324;DHT22;56470;47.350;8.718;2024-01-06T05:23:42;6.63;77.55
69324;DHT22;56470;47.350;8.718;2024-01-06T05:26:08;6.65;77.92
69324;DHT22;56470;47.350;8.718;2024-01-06T05:28:33;6.63;78.26
69324;DHT22;56470;47.350;8.718;2024-01-06T05:30:58;6.66;77.78
69324;DHT22;56470;47.350;8.718;2024-01-06T05:33:23;6.65;77.82
69324;DHT22;56470;47.350;8.718;2024-01-06T05:35:49;6.65;77.88
69324;DHT22;56470;47.350;8.718;2024-01-06T05:38:14;6.63;77.95
69324;DHT22;56470;47.350;8.718;2024-01-06T05:40:40;6.60;77.38
69324;DHT22;56470;47.350;8.718;2024-01-06T05:43:05;6.54;77.13
69324;DHT22;56470;47.350;8.718;2024-01-06T05:45:31;6.46;77.01
69324;DHT22;56470;47.350;8.718;2024-01-06T05:47:56;6.42;77.08
69324;DHT22;56470;47.350;8.718;2024-01-06T05:50:21;6.33;77.03
69324;DHT22;56470;47.350;8.718;2024-01-06T05:52:47;6.24;77.15
69324;DHT22;56470;47.350;8.718;2024-01-06T05:55:13;6.17;77.49
69324;DHT22;56470;47.350;8.718;2024-01-06T05:57:39;6.08;77.89
69324;DHT22;56470;47.350;8.718;2024-01-06T06:00:08;6.00;77.63
69324;DHT22;56470;47.350;8.718;2024-01-06T06:02:33;5.96;77.81
69324;DHT22;56470;47.350;8.718;2024-01-06T06:04:59;5.89;78.02
69324;DHT22;56470;47.350;8.718;2024-01-06T06:07:24;5.90;78.10
69324;DHT22;56470;47.350;8.718;2024-01-06T06:09:49;5.81;77.83
69324;DHT22;56470;47.350;8.718;2024-01-06T06:12:15;5.73;77.98
69324;DHT22;56470;47.350;8.718;2024-01-06T06:14:40;5.67;77.91
69324;DHT22;56470;47.350;8.718;2024-01-06T06:17:07;5.62;77.89
69324;DHT22;56470;47.350;8.718;2024-01-06T06:19:32;5.53;78.20
69324;DHT22;56470;47.350;8.718;2024-01-06T06:21:58;5.56;78.40
69324;DHT22;56470;47.350;8.718;2024-01-06T06:24:23;5.59;78.47
69324;DHT22;56470;47.350;8.718;2024-01-06T06:26:48;5.60;78.26
69324;DHT22;56470;47.350;8.718;2024-01-06T06:29:14;5.62;78.28
69324;DHT22;56470;47.350;8.718;2024-01-06T06:31:39;5.62;78.05
69324;DHT22;56470;47.350;8.718;2024-01-06T06:34:04;5.58;78.37
69324;DHT22;56470;47.350;8.718;2024-01-06T06:36:30;5.55;78.21
69324;DHT22;56470;47.350;8.718;2024-01-06T06:38:55;5.55;78.59
69324;DHT22;56470;47.350;8.718;2024-01-06T06:41:23;5.56;78.67
69324;DHT22;56470;47.350;8.718;2024-01-06T06:43:48;5.62;78.87
69324;DHT22;56470;47.350;8.718;2024-01-06T06:46:13;5.65;79.11
69324;DHT22;56470;47.350;8.718;2024-01-06T06:48:39;5.73;79.05
69324;DHT22;56470;47.350;8.718;2024-01-06T06:51:05;5.76;78.90
69324;DHT22;56470;47.350;8.718;2024-01-06T06:53:30;5.71;78.33
69324;DHT22;56470;47.350;8.718;2024-01-06T06:55:56;5.73;78.44
69324;DHT22;56470;47.350;8.718;2024-01-06T06:58:21;5.77;78.83
69324;DHT22;56470;47.350;8.718;2024-01-06T07:00:46;5.81;78.88
69324;DHT22;56470;47.350;8.718;2024-01-06T07:03:11;5.80;78.62
69324;DHT22;56470;47.350;8.718;2024-01-06T07:05:39;5.81;78.30
69324;DHT22;56470;47.350;8.718;2024-01-06T07:08:04;5.81;78.55
69324;DHT22;56470;47.350;8.718;2024-01-06T07:10:29;5.81;78.41
69324;DHT22;56470;47.350;8.718;2024-01-06T07:12:55;5.85;78.01
69324;DHT22;56470;47.350;8.718;2024-01-06T07:15:20;5.80;77.85
69324;DHT22;56470;47.350;8.718;2024-01-06T07:17:45;5.77;78.22
69324;DHT22;56470;47.350;8.718;2024-01-06T07:20:11;5.79;78.18
69324;DHT22;56470;47.350;8.718;2024-01-06T07:22:36;5.77;78.10
69324;DHT22;56470;47.350;8.718;2024-01-06T07:25:02;5.77;78.53
69324;DHT22;56470;47.350;8.718;2024-01-06T07:27:28;5.79;78.27
69324;DHT22;56470;47.350;8.718;2024-01-06T07:29:53;5.73;77.99
69324;DHT22;56470;47.350;8.718;2024-01-06T07:32:20;5.73;78.10
69324;DHT22;56470;47.350;8.718;2024-01-06T07:34:46;5.67;78.30
69324;DHT22;56470;47.350;8.718;2024-01-06T07:37:11;5.65;78.28
69324;DHT22;56470;47.350;8.718;2024-01-06T07:39:37;5.62;78.48
69324;DHT22;56470;47.350;8.718;2024-01-06T07:42:02;5.62;78.17
69324;DHT22;56470;47.350;8.718;2024-01-06T07:44:28;5.51;78.17
69324;DHT22;56470;47.350;8.718;2024-01-06T07:46:53;5.45;78.28
69324;DHT22;56470;47.350;8.718;2024-01-06T07:49:18;5.46;78.43
69324;DHT22;56470;47.350;8.718;2024-01-06T07:51:43;5.49;78.25
69324;DHT22;56470;47.350;8.718;2024-01-06T07:54:09;5.56;78.20
69324;DHT22;56470;47.350;8.718;2024-01-06T07:56:35;5.58;78.50
69324;DHT22;56470;47.350;8.718;2024-01-06T07:59:01;5.60;78.40
69324;DHT22;56470;47.350;8.718;2024-01-06T08:01:26;5.62;78.32
69324;DHT22;56470;47.350;8.718;2024-01-06T08:03:52;5.70;78.87
69324;DHT22;56470;47.350;8.718;2024-01-06T08:06:17;5.70;78.48
69324;DHT22;56470;47.350;8.718;2024-01-06T08:08:42;5.73;78.71
69324;DHT22;56470;47.350;8.718;2024-01-06T08:11:08;5.70;78.99
69324;DHT22;56470;47.350;8.718;2024-01-06T08:13:33;5.74;78.63
69324;DHT22;56470;47.350;8.718;2024-01-06T08:15:58;5.76;78.90
69324;DHT22;56470;47.350;8.718;2024-01-06T08:18:24;5.77;79.12
69324;DHT22;56470;47.350;8.718;2024-01-06T08:20:49;5.85;78.82
69324;DHT22;56470;47.350;8.718;2024-01-06T08:23:14;5.86;78.48
69324;DHT22;56470;47.350;8.718;2024-01-06T08:25:41;5.87;78.09
69324;DHT22;56470;47.350;8.718;2024-01-06T08:28:06;5.87;78.15
69324;DHT22;56470;47.350;8.718;2024-01-06T08:30:32;5.86;78.16
69324;DHT22;56470;47.350;8.718;2024-01-06T08:32:57;5.85;78.71
69324;DHT22;56470;47.350;8.718;2024-01-06T08:35:24;5.85;78.12
69324;DHT22;56470;47.350;8.718;2024-01-06T08:37:49;5.86;78.52
69324;DHT22;56470;47.350;8.718;2024-01-06T08:40:15;5.86;78.34
69324;DHT22;56470;47.350;8.718;2024-01-06T08:42:41;5.90;78.31
69324;DHT22;56470;47.350;8.718;2024-01-06T08:45:06;5.90;77.90
69324;DHT22;56470;47.350;8.718;2024-01-06T08:47:31;5.94;78.29
69324;DHT22;56470;47.350;8.718;2024-01-06T08:49:57;5.94;77.92
69324;DHT22;56470;47.350;8.718;2024-01-06T08:52:23;5.96;78.07
69324;DHT22;56470;47.350;8.718;2024-01-06T08:54:48;6.00;78.40
69324;DHT22;56470;47.350;8.718;2024-01-06T08:57:14;6.03;78.74
69324;DHT22;56470;47.350;8.718;2024-01-06T08:59:40;6.08;78.46
69324;DHT22;56470;47.350;8.718;2024-01-06T09:02:05;6.08;78.45
69324;DHT22;56470;47.350;8.718;2024-01-06T09:04:30;6.08;78.07
69324;DHT22;56470;47.350;8.718;2024-01-06T09:06:56;6.07;78.05
69324;DHT22;56470;47.350;8.718;2024-01-06T09:09:21;6.04;77.87
69324;DHT22;56470;47.350;8.718;2024-01-06T09:11:48;6.07;78.19
69324;DHT22;56470;47.350;8.718;2024-01-06T09:14:13;6.05;78.07
69324;DHT22;56470;47.350;8.718;2024-01-06T09:16:39;6.04;77.96
69324;DHT22;56470;47.350;8.718;2024-01-06T09:19:07;6.04;78.05
69324;DHT22;56470;47.350;8.718;2024-01-06T09:21:33;6.03;77.97
69324;DHT22;56470;47.350;8.718;2024-01-06T09:23:58;6.00;77.96
69324;DHT22;56470;47.350;8.718;2024-01-06T09:26:23;5.98;77.57
69324;DHT22;56470;47.350;8.718;2024-01-06T09:28:50;5.83;77.42
69324;DHT22;56470;47.350;8.718;2024-01-06T09:31:15;5.73;77.73
69324;DHT22;56470;47.350;8.718;2024-01-06T09:33:40;5.65;77.92
69324;DHT22;56470;47.350;8.718;2024-01-06T09:36:06;5.60;78.48
69324;DHT22;56470;47.350;8.718;2024-01-06T09:38:36;5.60;78.58
69324;DHT22;56470;47.350;8.718;2024-01-06T09:41:04;5.65;79.37
69324;DHT22;56470;47.350;8.718;2024-01-06T09:43:30;5.76;79.42
69324;DHT22;56470;47.350;8.718;2024-01-06T09:46:06;5.86;79.10
69324;DHT22;56470;47.350;8.718;2024-01-06T09:48:35;5.91;79.41
69324;DHT22;56470;47.350;8.718;2024-01-06T09:51:03;5.96;78.81
69324;DHT22;56470;47.350;8.718;2024-01-06T09:53:34;6.00;78.99
69324;DHT22;56470;47.350;8.718;2024-01-06T09:56:02;6.04;79.05
69324;DHT22;56470;47.350;8.718;2024-01-06T09:58:28;6.10;79.09
69324;DHT22;56470;47.350;8.718;2024-01-06T10:00:59;6.18;78.94
69324;DHT22;56470;47.350;8.718;2024-01-06T10:03:24;6.21;78.90
69324;DHT22;56470;47.350;8.718;2024-01-06T10:05:51;6.31;79.12
69324;DHT22;56470;47.350;8.718;2024-01-06T10:08:17;6.31;78.98
69324;DHT22;56470;47.350;8.718;2024-01-06T10:10:44;6.35;79.04
69324;DHT22;56470;47.350;8.718;2024-01-06T10:13:09;6.42;79.18
69324;DHT22;56470;47.350;8.718;2024-01-06T10:15:35;6.43;79.00
69324;DHT22;56470;47.350;8.718;2024-01-06T10:18:01;6.49;78.43
69324;DHT22;56470;47.350;8.718;2024-01-06T10:20:28;6.49;78.44
69324;DHT22;56470;47.350;8.718;2024-01-06T10:22:54;6.50;78.43
69324;DHT22;56470;47.350;8.718;2024-01-06T10:25:21;6.48;78.66
69324;DHT22;56470;47.350;8.718;2024-01-06T10:27:48;6.52;78.86
69324;DHT22;56470;47.350;8.718;2024-01-06T10:30:13;6.54;78.44
69324;DHT22;56470;47.350;8.718;2024-01-06T10:32:43;6.54;78.15
69324;DHT22;56470;47.350;8.718;2024-01-06T10:35:09;6.56;78.54
69324;DHT22;56470;47.350;8.718;2024-01-06T10:37:35;6.57;78.20
69324;DHT22;56470;47.350;8.718;2024-01-06T10:40:14;6.57;78.11
69324;DHT22;56470;47.350;8.718;2024-01-06T10:42:41;6.62;78.51
69324;DHT22;56470;47.350;8.718;2024-01-06T10:45:11;6.60;77.98
69324;DHT22;56470;47.350;8.718;2024-01-06T10:47:38;6.62;78.02
69324;DHT22;56470;47.350;8.718;2024-01-06T10:50:04;6.60;77.91
69324;DHT22;56470;47.350;8.718;2024-01-06T10:52:30;6.56;77.87
69324;DHT22;56470;47.350;8.718;2024-01-06T10:54:57;6.60;78.05
69324;DHT22;56470;47.350;8.718;2024-01-06T10:57:23;6.62;77.95
69324;DHT22;56470;47.350;8.718;2024-01-06T10:59:51;6.63;78.24
69324;DHT22;56470;47.350;8.718;2024-01-06T11:02:16;6.63;78.16
69324;DHT22;56470;47.350;8.718;2024-01-06T11:04:45;6.66;78.14
69324;DHT22;56470;47.350;8.718;2024-01-06T11:07:11;6.66;77.79
69324;DHT22;56470;47.350;8.718;2024-01-06T11:09:39;6.63;78.23
69324;DHT22;56470;47.350;8.718;2024-01-06T11:12:06;6.69;78.42
69324;DHT22;56470;47.350;8.718;2024-01-06T11:14:36;6.66;77.97
69324;DHT22;56470;47.350;8.718;2024-01-06T11:17:03;6.70;78.69
69324;DHT22;56470;47.350;8.718;2024-01-06T11:22:27;6.69;78.62
69324;DHT22;56470;47.350;8.718;2024-01-06T11:25:06;6.72;78.44
69324;DHT22;56470;47.350;8.718;2024-01-06T11:27:32;6.79;77.79
69324;DHT22;56470;47.350;8.718;2024-01-06T11:30:00;6.73;77.56
69324;DHT22;56470;47.350;8.718;2024-01-06T11:32:33;6.73;77.50
69324;DHT22;56470;47.350;8.718;2024-01-06T11:35:06;6.70;77.44
69324;DHT22;56470;47.350;8.718;2024-01-06T11:43:10;6.67;78.01
69324;DHT22;56470;47.350;8.718;2024-01-06T11:45:39;6.70;77.70
69324;DHT22;56470;47.350;8.718;2024-01-06T11:48:07;6.69;77.74
69324;DHT22;56470;47.350;8.718;2024-01-06T11:50:35;6.70;77.41
69324;DHT22;56470;47.350;8.718;2024-01-06T11:53:01;6.67;77.67
69324;DHT22;56470;47.350;8.718;2024-01-06T11:55:27;6.65;77.94
69324;DHT22;56470;47.350;8.718;2024-01-06T11:57:54;6.67;78.10
69324;DHT22;56470;47.350;8.718;2024-01-06T12:00:19;6.69;77.89
69324;DHT22;56470;47.350;8.718;2024-01-06T12:02:45;6.70;77.97
69324;DHT22;56470;47.350;8.718;2024-01-06T12:05:15;6.72;77.84
69324;DHT22;56470;47.350;8.718;2024-01-06T12:07:41;6.70;77.73
69324;DHT22;56470;47.350;8.718;2024-01-06T12:10:08;6.67;78.01
69324;DHT22;56470;47.350;8.718;2024-01-06T12:12:33;6.67;77.74
69324;DHT22;56470;47.350;8.718;2024-01-06T12:14:59;6.67;77.80
69324;DHT22;56470;47.350;8.718;2024-01-06T12:17:28;6.65;77.81
69324;DHT22;56470;47.350;8.718;2024-01-06T12:19:54;6.63;78.39
69324;DHT22;56470;47.350;8.718;2024-01-06T12:22:20;6.67;78.22
69324;DHT22;56470;47.350;8.718;2024-01-06T12:24:49;6.67;78.24
69324;DHT22;56470;47.350;8.718;2024-01-06T12:27:16;6.70;78.01
69324;DHT22;56470;47.350;8.718;2024-01-06T12:29:42;6.70;77.90
69324;DHT22;56470;47.350;8.718;2024-01-06T12:32:09;6.70;78.13
69324;DHT22;56470;47.350;8.718;2024-01-06T12:34:34;6.73;77.91
69324;DHT22;56470;47.350;8.718;2024-01-06T12:37:00;6.70;77.95
69324;DHT22;56470;47.350;8.718;2024-01-06T12:39:29;6.73;78.06
69324;DHT22;56470;47.350;8.718;2024-01-06T12:41:55;6.77;77.96
69324;DHT22;56470;47.350;8.718;2024-01-06T12:44:21;6.76;77.99
69324;DHT22;56470;47.350;8.718;2024-01-06T12:46:47;6.77;78.18
69324;DHT22;56470;47.350;8.718;2024-01-06T12:49:13;6.75;78.07
69324;DHT22;56470;47.350;8.718;2024-01-06T12:51:38;6.76;78.47
69324;DHT22;56470;47.350;8.718;2024-01-06T12:54:04;6.79;78.04
69324;DHT22;56470;47.350;8.718;2024-01-06T12:56:29;6.75;77.61
69324;DHT22;56470;47.350;8.718;2024-01-06T12:58:55;6.73;77.80
69324;DHT22;56470;47.350;8.718;2024-01-06T13:01:21;6.73;78.28
69324;DHT22;56470;47.350;8.718;2024-01-06T13:03:46;6.75;78.36
69324;DHT22;56470;47.350;8.718;2024-01-06T13:06:12;6.79;78.21
69324;DHT22;56470;47.350;8.718;2024-01-06T13:08:38;6.76;78.19
69324;DHT22;56470;47.350;8.718;2024-01-06T13:11:03;6.73;77.90
69324;DHT22;56470;47.350;8.718;2024-01-06T13:13:29;6.75;78.32
69324;DHT22;56470;47.350;8.718;2024-01-06T13:15:56;6.76;78.08
69324;DHT22;56470;47.350;8.718;2024-01-06T13:18:21;6.76;77.99
69324;DHT22;56470;47.350;8.718;2024-01-06T13:20:47;6.76;78.12
69324;DHT22;56470;47.350;8.718;2024-01-06T13:23:12;6.76;77.69
69324;DHT22;56470;47.350;8.718;2024-01-06T13:25:37;6.73;77.87
69324;DHT22;56470;47.350;8.718;2024-01-06T13:28:05;6.72;78.25
69324;DHT22;56470;47.350;8.718;2024-01-06T13:30:31;6.73;78.52
69324;DHT22;56470;47.350;8.718;2024-01-06T13:32:57;6.73;77.62
69324;DHT22;56470;47.350;8.718;2024-01-06T13:35:24;6.72;78.31
69324;DHT22;56470;47.350;8.718;2024-01-06T13:37:54;6.73;78.03
69324;DHT22;56470;47.350;8.718;2024-01-06T13:40:21;6.73;77.48
69324;DHT22;56470;47.350;8.718;2024-01-06T13:42:48;6.67;77.33
69324;DHT22;56470;47.350;8.718;2024-01-06T13:45:13;6.62;77.04
69324;DHT22;56470;47.350;8.718;2024-01-06T13:47:39;6.54;77.31
69324;DHT22;56470;47.350;8.718;2024-01-06T13:50:11;6.49;77.47
69324;DHT22;56470;47.350;8.718;2024-01-06T13:52:37;6.42;77.12
69324;DHT22;56470;47.350;8.718;2024-01-06T13:55:02;6.36;77.45
69324;DHT22;56470;47.350;8.718;2024-01-06T13:57:27;6.33;77.63
69324;DHT22;56470;47.350;8.718;2024-01-06T13:59:53;6.38;77.77
69324;DHT22;56470;47.350;8.718;2024-01-06T14:02:18;6.35;77.73
69324;DHT22;56470;47.350;8.718;2024-01-06T14:04:44;6.32;77.73
69324;DHT22;56470;47.350;8.718;2024-01-06T14:07:09;6.36;77.84
69324;DHT22;56470;47.350;8.718;2024-01-06T14:09:35;6.38;78.17
69324;DHT22;56470;47.350;8.718;2024-01-06T14:12:01;6.39;78.02
69324;DHT22;56470;47.350;8.718;2024-01-06T14:14:26;6.41;77.94
69324;DHT22;56470;47.350;8.718;2024-01-06T14:16:51;6.39;77.86
69324;DHT22;56470;47.350;8.718;2024-01-06T14:19:17;6.36;77.96
69324;DHT22;56470;47.350;8.718;2024-01-06T14:21:42;6.36;78.21
69324;DHT22;56470;47.350;8.718;2024-01-06T14:24:07;6.39;78.21
69324;DHT22;56470;47.350;8.718;2024-01-06T14:26:33;6.41;77.75
69324;DHT22;56470;47.350;8.718;2024-01-06T14:28:59;6.38;77.61
69324;DHT22;56470;47.350;8.718;2024-01-06T14:31:25;6.35;77.96
69324;DHT22;56470;47.350;8.718;2024-01-06T14:33:52;6.25;77.84
69324;DHT22;56470;47.350;8.718;2024-01-06T14:36:17;6.21;78.06
69324;DHT22;56470;47.350;8.718;2024-01-06T14:38:43;6.21;77.99
69324;DHT22;56470;47.350;8.718;2024-01-06T14:41:08;6.20;78.12
69324;DHT22;56470;47.350;8.718;2024-01-06T14:43:34;6.18;78.39
69324;DHT22;56470;47.350;8.718;2024-01-06T14:45:59;6.25;78.36
69324;DHT22;56470;47.350;8.718;2024-01-06T14:48:24;6.26;78.32
69324;DHT22;56470;47.350;8.718;2024-01-06T14:50:50;6.21;78.47
69324;DHT22;56470;47.350;8.718;2024-01-06T14:53:16;6.22;78.40
69324;DHT22;56470;47.350;8.718;2024-01-06T14:55:41;6.22;78.56
69324;DHT22;56470;47.350;8.718;2024-01-06T14:58:07;6.22;78.42
69324;DHT22;56470;47.350;8.718;2024-01-06T15:00:34;6.24;78.17
69324;DHT22;56470;47.350;8.718;2024-01-06T15:02:59;6.24;78.07
69324;DHT22;56470;47.350;8.718;2024-01-06T15:05:25;6.25;78.03
69324;DHT22;56470;47.350;8.718;2024-01-06T15:07:54;6.26;77.93
69324;DHT22;56470;47.350;8.718;2024-01-06T15:10:19;6.26;78.17
69324;DHT22;56470;47.350;8.718;2024-01-06T15:12:44;6.25;77.96
69324;DHT22;56470;47.350;8.718;2024-01-06T15:15:10;6.28;78.21
69324;DHT22;56470;47.350;8.718;2024-01-06T15:17:35;6.26;78.14
69324;DHT22;56470;47.350;8.718;2024-01-06T15:20:01;6.28;78.09
69324;DHT22;56470;47.350;8.718;2024-01-06T15:22:27;6.29;78.26
69324;DHT22;56470;47.350;8.718;2024-01-06T15:24:53;6.38;78.49
69324;DHT22;56470;47.350;8.718;2024-01-06T15:27:18;6.39;78.40
69324;DHT22;56470;47.350;8.718;2024-01-06T15:29:43;6.33;77.48
69324;DHT22;56470;47.350;8.718;2024-01-06T15:32:09;6.25;77.28
69324;DHT22;56470;47.350;8.718;2024-01-06T15:34:34;6.18;77.62
69324;DHT22;56470;47.350;8.718;2024-01-06T15:36:59;6.17;78.10
69324;DHT22;56470;47.350;8.718;2024-01-06T15:39:25;6.14;77.87
69324;DHT22;56470;47.350;8.718;2024-01-06T15:41:50;6.13;77.90
69324;DHT22;56470;47.350;8.718;2024-01-06T15:44:17;6.07;77.77